createdAt,value
2022-09-14T00:01:08.276Z,0.00
2022-09-14T00:01:52.249Z,0.00
2022-09-14T00:02:51.212Z,0.00
2022-09-14T00:03:51.101Z,0.00
2022-09-14T00:04:51.078Z,0.00
2022-09-14T00:05:51.109Z,0.00
2022-09-14T00:06:51.049Z,0.00
2022-09-14T00:07:51.032Z,0.00
2022-09-14T00:08:51.030Z,0.00
2022-09-14T00:09:51.011Z,0.00
2022-09-14T00:10:51.006Z,0.00
2022-09-14T00:11:51.092Z,0.00
2022-09-14T00:12:50.971Z,0.00
2022-09-14T00:13:50.971Z,0.00
2022-09-14T00:14:50.956Z,0.00
2022-09-14T00:15:50.936Z,0.00
2022-09-14T00:16:51.014Z,0.00
2022-09-14T00:17:50.939Z,0.00
2022-09-14T00:18:50.905Z,0.00
2022-09-14T00:19:50.885Z,0.00
2022-09-14T00:20:50.891Z,0.00
2022-09-14T00:21:50.863Z,0.00
2022-09-14T00:22:50.845Z,0.00
2022-09-14T00:23:50.868Z,0.00
2022-09-14T00:24:50.826Z,0.00
2022-09-14T00:25:50.814Z,0.00
2022-09-14T00:26:50.809Z,0.00
2022-09-14T00:27:50.784Z,0.00
2022-09-14T00:28:50.776Z,0.00
2022-09-14T00:29:50.877Z,0.00
2022-09-14T00:30:50.756Z,0.00
2022-09-14T00:31:50.971Z,0.00
2022-09-14T00:32:50.721Z,0.00
2022-09-14T00:33:50.741Z,0.00
2022-09-14T00:34:50.708Z,0.00
2022-09-14T00:35:50.788Z,0.00
2022-09-14T00:36:50.671Z,0.00
2022-09-14T00:37:50.650Z,0.00
2022-09-14T00:38:50.643Z,0.00
2022-09-14T00:39:50.688Z,0.00
2022-09-14T00:40:50.641Z,0.00
2022-09-14T00:41:50.630Z,0.00
2022-09-14T00:42:50.593Z,0.00
2022-09-14T00:43:50.661Z,0.00
2022-09-14T00:44:50.571Z,0.00
2022-09-14T00:45:50.613Z,0.00
2022-09-14T00:46:50.551Z,0.00
2022-09-14T00:47:50.580Z,0.00
2022-09-14T00:48:50.541Z,0.00
2022-09-14T00:49:50.502Z,0.00
2022-09-14T00:50:50.521Z,0.00
2022-09-14T00:51:50.483Z,0.00
2022-09-14T00:52:50.465Z,0.00
2022-09-14T00:53:50.485Z,0.00
2022-09-14T00:54:50.434Z,0.00
2022-09-14T00:55:50.424Z,0.00
2022-09-14T00:56:50.416Z,0.00
2022-09-14T00:57:50.404Z,0.00
2022-09-14T00:58:50.545Z,0.00
2022-09-14T00:59:50.396Z,0.00
2022-09-14T01:00:50.408Z,0.00
2022-09-14T01:01:50.392Z,0.00
2022-09-14T01:02:50.367Z,0.00
2022-09-14T01:03:50.338Z,0.00
2022-09-14T01:04:50.317Z,0.00
2022-09-14T01:05:50.417Z,0.00
2022-09-14T01:06:50.295Z,0.00
2022-09-14T01:07:50.278Z,0.00
2022-09-14T01:08:50.268Z,0.00
2022-09-14T01:09:50.250Z,0.00
2022-09-14T01:10:50.240Z,0.00
2022-09-14T01:11:51.746Z,0.00
2022-09-14T01:12:50.230Z,0.00
2022-09-14T01:13:50.200Z,0.00
2022-09-14T01:14:50.184Z,0.00
2022-09-14T01:15:50.179Z,0.00
2022-09-14T01:16:50.215Z,0.00
2022-09-14T01:17:50.176Z,0.00
2022-09-14T01:18:50.262Z,0.00
2022-09-14T01:19:50.124Z,0.00
2022-09-14T01:20:50.112Z,0.00
2022-09-14T01:21:50.118Z,0.00
2022-09-14T01:22:50.085Z,0.00
2022-09-14T01:23:50.186Z,0.00
2022-09-14T01:24:50.053Z,0.00
2022-09-14T01:25:50.047Z,0.00
2022-09-14T01:26:50.046Z,0.00
2022-09-14T01:27:50.024Z,0.00
2022-09-14T01:28:50.016Z,0.00
2022-09-14T01:29:50.115Z,0.00
2022-09-14T01:30:49.988Z,0.00
2022-09-14T01:31:50.022Z,0.00
2022-09-14T01:32:49.983Z,0.00
2022-09-14T01:33:50.009Z,0.00
2022-09-14T01:34:49.955Z,0.00
2022-09-14T01:35:50.037Z,0.00
2022-09-14T01:36:49.907Z,0.00
2022-09-14T01:37:49.907Z,0.00
2022-09-14T01:38:49.956Z,0.00
2022-09-14T01:39:49.925Z,0.00
2022-09-14T01:40:49.857Z,0.00
2022-09-14T01:41:49.958Z,0.00
2022-09-14T01:42:49.846Z,0.00
2022-09-14T01:43:49.854Z,0.00
2022-09-14T01:44:49.827Z,0.00
2022-09-14T01:45:49.884Z,0.00
2022-09-14T01:46:49.789Z,0.00
2022-09-14T01:47:49.880Z,0.00
2022-09-14T01:48:49.874Z,0.00
2022-09-14T01:49:49.754Z,0.00
2022-09-14T01:50:49.730Z,0.00
2022-09-14T01:51:49.723Z,0.00
2022-09-14T01:52:49.712Z,0.00
2022-09-14T01:53:49.805Z,0.00
2022-09-14T01:54:49.686Z,0.00
2022-09-14T01:55:49.691Z,0.00
2022-09-14T01:56:49.663Z,0.00
2022-09-14T01:57:49.651Z,0.00
2022-09-14T01:58:49.637Z,0.00
2022-09-14T01:59:49.736Z,0.00
2022-09-14T02:00:49.647Z,0.00
2022-09-14T02:01:50.640Z,0.00
2022-09-14T02:02:49.585Z,0.00
2022-09-14T02:03:49.668Z,0.00
2022-09-14T02:04:49.564Z,0.00
2022-09-14T02:05:49.578Z,0.00
2022-09-14T02:06:49.536Z,0.00
2022-09-14T02:07:49.523Z,0.00
2022-09-14T02:08:49.507Z,0.00
2022-09-14T02:09:49.511Z,0.00
2022-09-14T02:10:49.490Z,0.00
2022-09-14T02:11:49.498Z,0.00
2022-09-14T02:12:49.457Z,0.00
2022-09-14T02:13:49.482Z,0.00
2022-09-14T02:14:49.442Z,0.00
2022-09-14T02:15:49.518Z,0.00
2022-09-14T02:16:49.409Z,0.00
2022-09-14T02:17:49.518Z,0.00
2022-09-14T02:18:49.393Z,0.00
2022-09-14T02:19:49.396Z,0.00
2022-09-14T02:20:49.375Z,0.00
2022-09-14T02:21:49.361Z,0.00
2022-09-14T02:22:49.334Z,0.00
2022-09-14T02:23:49.350Z,0.00
2022-09-14T02:24:49.304Z,0.00
2022-09-14T02:25:49.324Z,0.00
2022-09-14T02:26:49.291Z,0.00
2022-09-14T02:27:49.271Z,0.00
2022-09-14T02:28:49.340Z,0.00
2022-09-14T02:29:49.362Z,0.00
2022-09-14T02:30:49.232Z,0.00
2022-09-14T02:31:49.285Z,0.00
2022-09-14T02:32:49.204Z,0.00
2022-09-14T02:33:49.258Z,0.00
2022-09-14T02:34:49.194Z,0.00
2022-09-14T02:35:49.205Z,0.00
2022-09-14T02:36:49.165Z,0.00
2022-09-14T02:37:49.145Z,0.00
2022-09-14T02:38:49.152Z,0.00
2022-09-14T02:39:49.149Z,0.00
2022-09-14T02:40:49.119Z,0.00
2022-09-14T02:41:49.229Z,0.00
2022-09-14T02:42:49.076Z,0.00
2022-09-14T02:43:49.104Z,0.00
2022-09-14T02:44:49.056Z,0.00
2022-09-14T02:45:49.060Z,0.00
2022-09-14T02:46:49.057Z,0.00
2022-09-14T02:47:49.058Z,0.00
2022-09-14T02:48:49.000Z,0.00
2022-09-14T02:49:48.991Z,0.00
2022-09-14T02:50:48.983Z,0.00
2022-09-14T02:51:48.969Z,0.00
2022-09-14T02:52:48.959Z,0.00
2022-09-14T02:53:48.969Z,0.00
2022-09-14T02:54:48.931Z,0.00
2022-09-14T02:55:48.929Z,0.00
2022-09-14T02:56:48.901Z,0.00
2022-09-14T02:57:48.896Z,0.00
2022-09-14T02:58:48.890Z,0.00
2022-09-14T02:59:48.890Z,0.00
2022-09-14T03:00:48.893Z,0.00
2022-09-14T03:01:48.887Z,0.00
2022-09-14T03:02:48.822Z,0.00
2022-09-14T03:03:48.820Z,0.00
2022-09-14T03:04:48.802Z,0.00
2022-09-14T03:05:48.813Z,0.00
2022-09-14T03:06:48.781Z,0.00
2022-09-14T03:07:48.783Z,0.00
2022-09-14T03:08:48.756Z,0.00
2022-09-14T03:09:48.743Z,0.00
2022-09-14T03:10:48.726Z,0.00
2022-09-14T03:11:48.746Z,0.00
2022-09-14T03:12:48.706Z,0.00
2022-09-14T03:13:48.695Z,0.00
2022-09-14T03:14:48.675Z,0.00
2022-09-14T03:15:48.717Z,0.00
2022-09-14T03:16:48.654Z,0.00
2022-09-14T03:17:48.757Z,0.00
2022-09-14T03:18:48.635Z,0.00
2022-09-14T03:19:48.617Z,0.00
2022-09-14T03:20:48.600Z,0.00
2022-09-14T03:21:48.600Z,0.00
2022-09-14T03:22:48.587Z,0.00
2022-09-14T03:23:48.692Z,0.00
2022-09-14T03:24:48.560Z,0.00
2022-09-14T03:25:48.538Z,0.00
2022-09-14T03:26:48.529Z,0.00
2022-09-14T03:27:48.519Z,0.00
2022-09-14T03:28:48.501Z,0.00
2022-09-14T03:29:48.523Z,0.00
2022-09-14T03:30:48.480Z,0.00
2022-09-14T03:31:48.514Z,0.00
2022-09-14T03:32:48.460Z,0.00
2022-09-14T03:33:48.441Z,0.00
2022-09-14T03:34:48.430Z,0.00
2022-09-14T03:35:48.536Z,0.00
2022-09-14T03:36:48.393Z,0.00
2022-09-14T03:37:48.412Z,0.00
2022-09-14T03:38:48.373Z,0.00
2022-09-14T03:39:48.398Z,0.00
2022-09-14T03:40:48.353Z,0.00
2022-09-14T03:41:48.472Z,0.00
2022-09-14T03:42:48.326Z,0.00
2022-09-14T03:43:48.406Z,0.00
2022-09-14T03:44:48.304Z,0.00
2022-09-14T03:45:48.286Z,0.00
2022-09-14T03:46:48.293Z,0.00
2022-09-14T03:47:48.384Z,0.00
2022-09-14T03:48:48.247Z,0.00
2022-09-14T03:49:48.253Z,0.00
2022-09-14T03:50:48.227Z,0.00
2022-09-14T03:51:48.217Z,0.00
2022-09-14T03:52:48.217Z,0.00
2022-09-14T03:53:48.286Z,0.00
2022-09-14T03:54:48.182Z,0.00
2022-09-14T03:55:48.168Z,0.00
2022-09-14T03:56:48.158Z,0.00
2022-09-14T03:57:48.148Z,0.00
2022-09-14T03:58:48.128Z,0.00
2022-09-14T03:59:48.237Z,0.00
2022-09-14T04:00:48.100Z,0.00
2022-09-14T04:01:48.149Z,0.00
2022-09-14T04:02:48.152Z,0.00
2022-09-14T04:03:48.061Z,0.00
2022-09-14T04:04:48.052Z,0.00
2022-09-14T04:05:48.085Z,0.00
2022-09-14T04:06:48.023Z,0.00
2022-09-14T04:07:48.012Z,0.00
2022-09-14T04:08:48.085Z,0.00
2022-09-14T04:09:47.992Z,0.00
2022-09-14T04:10:47.972Z,0.00
2022-09-14T04:11:48.076Z,0.00
2022-09-14T04:12:47.944Z,0.00
2022-09-14T04:13:47.953Z,0.00
2022-09-14T04:14:47.944Z,0.00
2022-09-14T04:15:47.967Z,0.00
2022-09-14T04:16:47.896Z,0.00
2022-09-14T04:17:48.016Z,0.00
2022-09-14T04:18:47.878Z,0.00
2022-09-14T04:19:47.876Z,0.00
2022-09-14T04:20:47.854Z,0.00
2022-09-14T04:21:47.846Z,0.00
2022-09-14T04:22:47.816Z,0.00
2022-09-14T04:24:48.808Z,0.00
2022-09-14T04:25:47.789Z,0.00
2022-09-14T04:26:47.778Z,0.00
2022-09-14T04:27:58.984Z,0.00
2022-09-14T04:28:48.857Z,0.00
2022-09-14T04:29:47.741Z,0.00
2022-09-14T04:30:47.719Z,0.00
2022-09-14T04:31:47.796Z,0.00
2022-09-14T04:32:47.700Z,0.00
2022-09-14T04:33:47.787Z,0.00
2022-09-14T04:34:47.702Z,0.00
2022-09-14T04:35:47.672Z,0.00
2022-09-14T04:36:47.659Z,0.00
2022-09-14T04:37:47.642Z,0.00
2022-09-14T04:38:47.621Z,0.00
2022-09-14T04:39:47.641Z,0.00
2022-09-14T04:40:47.742Z,0.00
2022-09-14T04:41:47.592Z,0.00
2022-09-14T04:42:47.574Z,0.00
2022-09-14T04:43:47.563Z,0.00
2022-09-14T04:44:47.543Z,0.00
2022-09-14T04:45:47.534Z,0.00
2022-09-14T04:46:47.689Z,0.00
2022-09-14T04:47:47.514Z,0.00
2022-09-14T04:48:47.541Z,0.00
2022-09-14T04:49:47.485Z,0.00
2022-09-14T04:50:47.475Z,0.00
2022-09-14T04:51:47.486Z,0.00
2022-09-14T04:52:47.564Z,0.00
2022-09-14T04:53:47.437Z,0.00
2022-09-14T04:54:47.430Z,0.00
2022-09-14T04:55:47.412Z,0.00
2022-09-14T04:56:47.404Z,0.00
2022-09-14T04:57:47.397Z,0.00
2022-09-14T04:58:51.378Z,0.00
2022-09-14T04:59:47.358Z,0.00
2022-09-14T05:00:47.349Z,0.00
2022-09-14T05:01:47.410Z,0.00
2022-09-14T05:02:47.360Z,0.00
2022-09-14T05:03:47.316Z,0.00
2022-09-14T05:04:47.417Z,0.00
2022-09-14T05:05:47.296Z,5.62
2022-09-14T05:06:47.272Z,5.62
2022-09-14T05:07:47.260Z,5.62
2022-09-14T05:08:47.250Z,5.62
2022-09-14T05:09:47.232Z,5.62
2022-09-14T05:10:47.249Z,5.62
2022-09-14T05:11:47.210Z,5.62
2022-09-14T05:12:47.204Z,5.62
2022-09-14T05:13:49.946Z,5.62
2022-09-14T05:14:47.173Z,5.62
2022-09-14T05:15:47.219Z,11.25
2022-09-14T05:16:47.244Z,11.25
2022-09-14T05:17:47.151Z,11.25
2022-09-14T05:18:47.113Z,11.25
2022-09-14T05:19:47.114Z,11.25
2022-09-14T05:20:47.106Z,11.25
2022-09-14T05:21:47.105Z,11.25
2022-09-14T05:22:47.185Z,11.25
2022-09-14T05:23:47.056Z,16.88
2022-09-14T05:24:47.045Z,16.88
2022-09-14T05:25:47.038Z,16.88
2022-09-14T05:26:47.026Z,16.88
2022-09-14T05:27:47.006Z,16.88
2022-09-14T05:28:47.031Z,16.88
2022-09-14T05:29:46.979Z,16.88
2022-09-14T05:30:47.009Z,16.88
2022-09-14T05:31:46.964Z,22.50
2022-09-14T05:32:46.949Z,22.50
2022-09-14T05:33:47.007Z,22.50
2022-09-14T05:34:47.039Z,22.50
2022-09-14T05:35:46.899Z,22.50
2022-09-14T05:36:46.897Z,28.12
2022-09-14T05:37:46.877Z,28.12
2022-09-14T05:38:46.863Z,28.12
2022-09-14T05:39:46.928Z,28.12
2022-09-14T05:40:46.873Z,28.12
2022-09-14T05:41:46.820Z,28.12
2022-09-14T05:42:46.820Z,28.12
2022-09-14T05:43:46.803Z,28.12
2022-09-14T05:44:46.790Z,28.12
2022-09-14T05:45:46.782Z,28.12
2022-09-14T05:46:46.846Z,33.75
2022-09-14T05:47:46.759Z,33.75
2022-09-14T05:48:46.744Z,33.75
2022-09-14T05:49:46.723Z,33.75
2022-09-14T05:50:46.713Z,33.75
2022-09-14T05:51:46.707Z,33.75
2022-09-14T05:52:46.807Z,33.75
2022-09-14T05:53:46.675Z,33.75
2022-09-14T05:54:46.666Z,33.75
2022-09-14T05:55:46.646Z,33.75
2022-09-14T05:56:46.635Z,33.75
2022-09-14T05:57:46.625Z,33.75
2022-09-14T05:58:46.748Z,33.75
2022-09-14T05:59:46.596Z,33.75
2022-09-14T06:00:46.597Z,33.75
2022-09-14T06:01:46.627Z,33.75
2022-09-14T06:02:46.573Z,33.75
2022-09-14T06:03:46.550Z,33.75
2022-09-14T06:04:46.580Z,39.38
2022-09-14T06:05:46.583Z,39.38
2022-09-14T06:06:56.119Z,39.38
2022-09-14T06:07:47.500Z,39.38
2022-09-14T06:08:46.488Z,39.38
2022-09-14T06:09:46.469Z,39.38
2022-09-14T06:10:46.573Z,45.00
2022-09-14T06:11:46.450Z,45.00
2022-09-14T06:12:46.441Z,45.00
2022-09-14T06:13:46.454Z,50.62
2022-09-14T06:14:46.412Z,50.62
2022-09-14T06:15:46.391Z,50.62
2022-09-14T06:16:46.435Z,56.25
2022-09-14T06:17:46.372Z,56.25
2022-09-14T06:18:46.363Z,61.88
2022-09-14T06:19:46.342Z,61.88
2022-09-14T06:20:46.341Z,67.50
2022-09-14T06:21:46.331Z,67.50
2022-09-14T06:22:46.333Z,73.12
2022-09-14T06:23:46.296Z,73.12
2022-09-14T06:24:46.324Z,73.12
2022-09-14T06:25:46.266Z,78.75
2022-09-14T06:26:46.263Z,78.75
2022-09-14T06:27:46.255Z,84.38
2022-09-14T06:28:46.271Z,84.38
2022-09-14T06:29:46.253Z,84.38
2022-09-14T06:30:46.206Z,84.38
2022-09-14T06:31:46.235Z,84.38
2022-09-14T06:32:46.190Z,90.00
2022-09-14T06:33:46.167Z,95.62
2022-09-14T06:34:46.186Z,95.62
2022-09-14T06:35:46.159Z,101.25
2022-09-14T06:36:46.178Z,106.88
2022-09-14T06:37:46.129Z,112.50
2022-09-14T06:38:46.107Z,112.50
2022-09-14T06:39:46.158Z,118.12
2022-09-14T06:40:46.200Z,123.75
2022-09-14T06:41:46.081Z,123.75
2022-09-14T06:42:46.081Z,129.38
2022-09-14T06:43:46.061Z,135.00
2022-09-14T06:44:46.030Z,135.00
2022-09-14T06:45:46.031Z,135.00
2022-09-14T06:46:47.723Z,140.62
2022-09-14T06:47:46.000Z,146.25
2022-09-14T06:48:45.993Z,146.25
2022-09-14T06:49:45.962Z,151.88
2022-09-14T06:50:45.954Z,157.50
2022-09-14T06:51:45.941Z,157.50
2022-09-14T06:52:45.965Z,163.12
2022-09-14T06:53:45.954Z,163.12
2022-09-14T06:54:45.914Z,163.12
2022-09-14T06:55:45.896Z,163.12
2022-09-14T06:56:45.879Z,163.12
2022-09-14T06:57:45.866Z,157.50
2022-09-14T06:58:45.888Z,163.12
2022-09-14T06:59:45.837Z,163.12
2022-09-14T07:00:45.831Z,163.12
2022-09-14T07:01:45.819Z,163.12
2022-09-14T07:02:45.879Z,168.75
2022-09-14T07:03:45.793Z,174.38
2022-09-14T07:04:45.817Z,180.00
2022-09-14T07:05:45.766Z,191.25
2022-09-14T07:06:45.755Z,196.88
2022-09-14T07:07:45.739Z,202.50
2022-09-14T07:08:45.729Z,208.12
2022-09-14T07:09:45.721Z,213.75
2022-09-14T07:10:45.721Z,213.75
2022-09-14T07:11:45.691Z,213.75
2022-09-14T07:12:45.722Z,208.12
2022-09-14T07:13:45.664Z,196.88
2022-09-14T07:14:45.651Z,185.62
2022-09-14T07:15:45.641Z,180.00
2022-09-14T07:16:45.661Z,174.38
2022-09-14T07:17:45.613Z,168.75
2022-09-14T07:18:45.602Z,168.75
2022-09-14T07:19:45.584Z,174.38
2022-09-14T07:20:45.573Z,174.38
2022-09-14T07:21:45.564Z,180.00
2022-09-14T07:22:45.572Z,185.62
2022-09-14T07:23:45.543Z,191.25
2022-09-14T07:24:45.525Z,196.88
2022-09-14T07:25:45.543Z,196.88
2022-09-14T07:26:45.526Z,196.88
2022-09-14T07:27:45.496Z,202.50
2022-09-14T07:28:45.506Z,202.50
2022-09-14T07:29:45.506Z,208.12
2022-09-14T07:30:45.493Z,213.75
2022-09-14T07:31:45.439Z,213.75
2022-09-14T07:32:45.432Z,219.38
2022-09-14T07:33:45.564Z,219.38
2022-09-14T07:34:45.538Z,219.38
2022-09-14T07:35:45.390Z,213.75
2022-09-14T07:36:45.378Z,208.12
2022-09-14T07:37:45.360Z,202.50
2022-09-14T07:38:53.477Z,196.88
2022-09-14T07:39:46.430Z,191.25
2022-09-14T07:40:45.321Z,191.25
2022-09-14T07:41:45.341Z,191.25
2022-09-14T07:42:45.301Z,191.25
2022-09-14T07:43:45.291Z,196.88
2022-09-14T07:44:45.272Z,196.88
2022-09-14T07:45:45.396Z,196.88
2022-09-14T07:46:45.254Z,202.50
2022-09-14T07:47:45.242Z,202.50
2022-09-14T07:48:45.226Z,202.50
2022-09-14T07:49:45.204Z,208.12
2022-09-14T07:50:45.201Z,213.75
2022-09-14T07:51:45.205Z,225.00
2022-09-14T07:52:45.178Z,230.62
2022-09-14T07:53:45.156Z,241.88
2022-09-14T07:54:45.154Z,253.12
2022-09-14T07:55:45.136Z,264.38
2022-09-14T07:56:45.133Z,270.00
2022-09-14T07:57:56.237Z,281.25
2022-09-14T07:58:46.104Z,286.88
2022-09-14T07:59:45.086Z,292.50
2022-09-14T08:00:45.078Z,298.12
2022-09-14T08:01:45.100Z,309.38
2022-09-14T08:02:45.128Z,309.38
2022-09-14T08:03:45.175Z,320.62
2022-09-14T08:04:45.019Z,320.62
2022-09-14T08:05:45.009Z,326.25
2022-09-14T08:06:45.001Z,331.88
2022-09-14T08:07:44.987Z,343.12
2022-09-14T08:08:44.971Z,343.12
2022-09-14T08:09:45.922Z,348.75
2022-09-14T08:10:44.966Z,354.38
2022-09-14T08:11:44.933Z,360.00
2022-09-14T08:12:44.927Z,365.62
2022-09-14T08:13:44.903Z,360.00
2022-09-14T08:14:44.901Z,354.38
2022-09-14T08:15:44.903Z,337.50
2022-09-14T08:16:44.983Z,326.25
2022-09-14T08:17:44.854Z,315.00
2022-09-14T08:18:44.853Z,303.75
2022-09-14T08:19:44.885Z,292.50
2022-09-14T08:20:45.667Z,286.88
2022-09-14T08:21:47.511Z,281.25
2022-09-14T08:22:47.616Z,275.62
2022-09-14T08:23:44.811Z,275.62
2022-09-14T08:24:44.800Z,270.00
2022-09-14T08:25:44.789Z,264.38
2022-09-14T08:26:44.749Z,264.38
2022-09-14T08:27:44.857Z,264.38
2022-09-14T08:28:44.786Z,258.75
2022-09-14T08:29:44.752Z,264.38
2022-09-14T08:30:44.716Z,264.38
2022-09-14T08:31:44.742Z,264.38
2022-09-14T08:32:44.690Z,264.38
2022-09-14T08:33:44.773Z,270.00
2022-09-14T08:34:44.691Z,270.00
2022-09-14T08:35:57.481Z,281.25
2022-09-14T08:36:45.634Z,275.62
2022-09-14T08:37:44.621Z,281.25
2022-09-14T08:38:44.611Z,281.25
2022-09-14T08:39:48.310Z,286.88
2022-09-14T08:40:45.567Z,292.50
2022-09-14T08:41:44.562Z,298.12
2022-09-14T08:42:44.603Z,303.75
2022-09-14T08:43:44.548Z,309.38
2022-09-14T08:44:44.525Z,315.00
2022-09-14T08:45:44.660Z,320.62
2022-09-14T08:46:44.534Z,320.62
2022-09-14T08:47:44.488Z,320.62
2022-09-14T08:48:44.566Z,315.00
2022-09-14T08:49:44.476Z,315.00
2022-09-14T08:50:44.475Z,309.38
2022-09-14T08:51:49.428Z,303.75
2022-09-14T08:52:44.419Z,303.75
2022-09-14T08:53:44.559Z,298.12
2022-09-14T08:54:44.429Z,298.12
2022-09-14T08:55:44.379Z,292.50
2022-09-14T08:56:44.412Z,292.50
2022-09-14T08:57:44.460Z,286.88
2022-09-14T08:58:48.323Z,281.25
2022-09-14T08:59:45.158Z,275.62
2022-09-14T09:00:44.408Z,270.00
2022-09-14T09:01:44.533Z,264.38
2022-09-14T09:02:45.111Z,258.75
2022-09-14T09:03:44.393Z,253.12
2022-09-14T09:04:45.069Z,247.50
2022-09-14T09:05:44.262Z,247.50
2022-09-14T09:06:44.322Z,241.88
2022-09-14T09:07:44.873Z,241.88
2022-09-14T09:08:44.273Z,236.25
2022-09-14T09:09:44.226Z,230.62
2022-09-14T09:10:44.195Z,225.00
2022-09-14T09:11:44.175Z,219.38
2022-09-14T09:12:44.167Z,225.00
2022-09-14T09:13:44.948Z,213.75
2022-09-14T09:14:44.177Z,213.75
2022-09-14T09:15:44.156Z,219.38
2022-09-14T09:16:44.180Z,219.38
2022-09-14T09:17:44.097Z,225.00
2022-09-14T09:18:44.088Z,236.25
2022-09-14T09:19:44.092Z,241.88
2022-09-14T09:20:44.077Z,253.12
2022-09-14T09:21:44.177Z,258.75
2022-09-14T09:22:44.030Z,270.00
2022-09-14T09:23:44.020Z,286.88
2022-09-14T09:24:44.012Z,286.88
2022-09-14T09:25:44.001Z,286.88
2022-09-14T09:26:43.981Z,286.88
2022-09-14T09:27:44.092Z,286.88
2022-09-14T09:28:43.963Z,281.25
2022-09-14T09:29:43.952Z,281.25
2022-09-14T09:30:43.933Z,270.00
2022-09-14T09:31:44.014Z,264.38
2022-09-14T09:32:44.872Z,258.75
2022-09-14T09:33:44.003Z,253.12
2022-09-14T09:34:43.885Z,247.50
2022-09-14T09:35:43.865Z,241.88
2022-09-14T09:36:43.873Z,241.88
2022-09-14T09:37:44.805Z,241.88
2022-09-14T09:38:43.861Z,236.25
2022-09-14T09:39:44.024Z,236.25
2022-09-14T09:40:43.806Z,241.88
2022-09-14T09:41:43.796Z,230.62
2022-09-14T09:42:43.789Z,230.62
2022-09-14T09:43:49.654Z,230.62
2022-09-14T09:44:44.868Z,230.62
2022-09-14T09:45:43.750Z,236.25
2022-09-14T09:46:44.757Z,241.88
2022-09-14T09:47:43.731Z,241.88
2022-09-14T09:48:43.813Z,241.88
2022-09-14T09:49:43.692Z,247.50
2022-09-14T09:50:43.711Z,253.12
2022-09-14T09:51:43.679Z,258.75
2022-09-14T09:52:43.690Z,264.38
2022-09-14T09:53:43.650Z,270.00
2022-09-14T09:54:43.624Z,275.62
2022-09-14T09:55:43.621Z,281.25
2022-09-14T09:56:43.641Z,286.88
2022-09-14T09:57:43.614Z,292.50
2022-09-14T09:58:43.584Z,292.50
2022-09-14T09:59:43.585Z,286.88
2022-09-14T10:00:43.595Z,286.88
2022-09-14T10:01:44.468Z,286.88
2022-09-14T10:02:43.646Z,281.25
2022-09-14T10:03:43.567Z,275.62
2022-09-14T10:04:43.575Z,270.00
2022-09-14T10:05:43.517Z,270.00
2022-09-14T10:06:43.533Z,264.38
2022-09-14T10:07:43.468Z,264.38
2022-09-14T10:08:43.492Z,264.38
2022-09-14T10:09:43.438Z,264.38
2022-09-14T10:10:43.532Z,264.38
2022-09-14T10:11:43.473Z,270.00
2022-09-14T10:12:43.409Z,270.00
2022-09-14T10:13:43.390Z,270.00
2022-09-14T10:14:43.400Z,275.62
2022-09-14T10:15:43.481Z,275.62
2022-09-14T10:16:43.462Z,275.62
2022-09-14T10:17:43.355Z,275.62
2022-09-14T10:18:46.874Z,275.62
2022-09-14T10:19:44.344Z,275.62
2022-09-14T10:20:43.307Z,275.62
2022-09-14T10:21:43.295Z,275.62
2022-09-14T10:22:43.310Z,275.62
2022-09-14T10:23:43.389Z,275.62
2022-09-14T10:24:45.180Z,275.62
2022-09-14T10:25:43.575Z,275.62
2022-09-14T10:26:44.318Z,275.62
2022-09-14T10:27:45.789Z,281.25
2022-09-14T10:28:43.503Z,281.25
2022-09-14T10:29:43.555Z,281.25
2022-09-14T10:30:44.983Z,281.25
2022-09-14T10:31:45.420Z,281.25
2022-09-14T10:32:50.396Z,286.88
2022-09-14T10:33:45.666Z,286.88
2022-09-14T10:34:44.306Z,286.88
2022-09-14T10:35:46.703Z,292.50
2022-09-14T10:36:43.592Z,292.50
2022-09-14T10:37:49.023Z,292.50
2022-09-14T10:39:15.632Z,298.12
2022-09-14T10:39:50.905Z,298.12
2022-09-14T10:40:43.693Z,298.12
2022-09-14T10:41:48.521Z,303.75
2022-09-14T10:42:43.578Z,303.75
2022-09-14T10:43:44.567Z,303.75
2022-09-14T10:44:45.223Z,303.75
2022-09-14T10:45:45.869Z,303.75
2022-09-14T10:46:44.446Z,298.12
2022-09-14T10:47:47.277Z,298.12
2022-09-14T10:48:44.910Z,292.50
2022-09-14T10:49:43.781Z,292.50
2022-09-14T10:50:43.480Z,286.88
2022-09-14T10:51:44.897Z,286.88
2022-09-14T10:52:50.115Z,286.88
2022-09-14T10:53:44.313Z,286.88
2022-09-14T10:54:46.771Z,292.50
2022-09-14T10:55:46.344Z,292.50
2022-09-14T10:56:43.867Z,298.12
2022-09-14T10:57:44.607Z,298.12
2022-09-14T10:58:43.886Z,303.75
2022-09-14T10:59:44.440Z,309.38
2022-09-14T11:00:43.657Z,309.38
2022-09-14T11:01:47.425Z,315.00
2022-09-14T11:02:44.291Z,320.62
2022-09-14T11:03:46.035Z,326.25
2022-09-14T11:04:43.736Z,326.25
2022-09-14T11:05:43.089Z,331.88
2022-09-14T11:06:42.746Z,343.12
2022-09-14T11:07:42.737Z,348.75
2022-09-14T11:08:42.704Z,360.00
2022-09-14T11:09:42.687Z,365.62
2022-09-14T11:10:42.677Z,371.25
2022-09-14T11:11:43.263Z,376.88
2022-09-14T11:12:42.648Z,376.88
2022-09-14T11:13:42.942Z,376.88
2022-09-14T11:14:42.619Z,376.88
2022-09-14T11:15:42.627Z,376.88
2022-09-14T11:16:42.600Z,376.88
2022-09-14T11:17:42.611Z,371.25
2022-09-14T11:18:42.571Z,371.25
2022-09-14T11:19:42.681Z,371.25
2022-09-14T11:20:42.993Z,371.25
2022-09-14T11:21:43.504Z,371.25
2022-09-14T11:22:42.532Z,376.88
2022-09-14T11:23:42.545Z,376.88
2022-09-14T11:24:42.501Z,376.88
2022-09-14T11:25:42.605Z,376.88
2022-09-14T11:26:42.701Z,382.50
2022-09-14T11:27:42.474Z,376.88
2022-09-14T11:28:42.455Z,376.88
2022-09-14T11:29:42.435Z,376.88
2022-09-14T11:30:42.480Z,376.88
2022-09-14T11:31:42.446Z,376.88
2022-09-14T11:32:42.405Z,376.88
2022-09-14T11:33:42.386Z,382.50
2022-09-14T11:34:42.379Z,382.50
2022-09-14T11:35:42.378Z,388.12
2022-09-14T11:36:42.351Z,388.12
2022-09-14T11:37:42.478Z,393.75
2022-09-14T11:38:42.328Z,393.75
2022-09-14T11:39:42.395Z,393.75
2022-09-14T11:40:42.310Z,393.75
2022-09-14T11:41:43.234Z,393.75
2022-09-14T11:42:42.291Z,399.38
2022-09-14T11:43:42.505Z,393.75
2022-09-14T11:44:42.252Z,393.75
2022-09-14T11:45:42.238Z,399.38
2022-09-14T11:46:42.285Z,393.75
2022-09-14T11:47:42.222Z,399.38
2022-09-14T11:48:43.428Z,399.38
2022-09-14T11:49:42.318Z,399.38
2022-09-14T11:50:42.175Z,399.38
2022-09-14T11:51:42.158Z,399.38
2022-09-14T11:52:42.176Z,399.38
2022-09-14T11:53:42.137Z,399.38
2022-09-14T11:54:46.685Z,399.38
2022-09-14T11:55:42.219Z,399.38
2022-09-14T11:56:42.098Z,405.00
2022-09-14T11:57:42.080Z,410.62
2022-09-14T11:58:42.081Z,405.00
2022-09-14T11:59:42.059Z,410.62
2022-09-14T12:00:42.052Z,410.62
2022-09-14T12:01:42.066Z,410.62
2022-09-14T12:02:42.056Z,410.62
2022-09-14T12:03:42.085Z,410.62
2022-09-14T12:04:42.022Z,410.62
2022-09-14T12:05:41.992Z,410.62
2022-09-14T12:06:41.992Z,410.62
2022-09-14T12:07:42.068Z,410.62
2022-09-14T12:08:41.944Z,410.62
2022-09-14T12:09:41.936Z,405.00
2022-09-14T12:10:45.770Z,405.00
2022-09-14T12:11:41.917Z,405.00
2022-09-14T12:12:41.906Z,405.00
2022-09-14T12:13:41.997Z,405.00
2022-09-14T12:14:41.885Z,405.00
2022-09-14T12:15:41.909Z,399.38
2022-09-14T12:16:41.887Z,399.38
2022-09-14T12:17:41.851Z,405.00
2022-09-14T12:18:41.818Z,405.00
2022-09-14T12:19:42.869Z,399.38
2022-09-14T12:20:41.803Z,399.38
2022-09-14T12:21:42.751Z,399.38
2022-09-14T12:22:41.770Z,393.75
2022-09-14T12:23:42.190Z,393.75
2022-09-14T12:24:41.740Z,388.12
2022-09-14T12:25:42.812Z,388.12
2022-09-14T12:26:41.722Z,382.50
2022-09-14T12:27:42.682Z,382.50
2022-09-14T12:28:41.702Z,382.50
2022-09-14T12:29:41.672Z,376.88
2022-09-14T12:30:41.676Z,376.88
2022-09-14T12:31:41.832Z,376.88
2022-09-14T12:32:42.256Z,371.25
2022-09-14T12:33:41.746Z,371.25
2022-09-14T12:34:41.627Z,365.62
2022-09-14T12:35:42.561Z,365.62
2022-09-14T12:36:42.544Z,365.62
2022-09-14T12:37:41.605Z,365.62
2022-09-14T12:38:41.566Z,360.00
2022-09-14T12:39:41.571Z,360.00
2022-09-14T12:40:41.565Z,354.38
2022-09-14T12:41:41.684Z,348.75
2022-09-14T12:42:41.527Z,337.50
2022-09-14T12:43:41.538Z,331.88
2022-09-14T12:44:41.495Z,326.25
2022-09-14T12:45:41.489Z,315.00
2022-09-14T12:46:41.504Z,315.00
2022-09-14T12:47:41.510Z,303.75
2022-09-14T12:48:41.451Z,298.12
2022-09-14T12:49:41.530Z,292.50
2022-09-14T12:50:41.421Z,286.88
2022-09-14T12:51:41.430Z,286.88